Patterson, CA (95363)

8:34 PM PST on February 28, 2015 (GMT -0800)
Patterson, Ca | Change Station
CLOSE
Current Station
Personal Weather Station
Location: Patterson, CA
Elevation: 93 ft
Nearby Weather Stations

Elev 93 ft 37.44 °N, 121.09 °W | Updated 60 seconds ago

Mostly Cloudy
Mostly Cloudy
48.7 °F
Feels Like 49 °F
N
0.0
Wind Variable Wind from North
Gusts 0.0 mph

Today
High -- | Low -- °F
--% Chance of Precip.
Yesterday
High -- | Low -- °F
Precip. -- in
6:37 AM 5:57 PM
Waxing Gibbous, 82% visible
Pressure 29.85 in
Visibility 10.0 miles
Clouds Clear
Windchill 49 °F
Dew Point 43 °F
Humidity 81%
Rainfall 0.59 in
Snow Depth Not available.
UV 0 out of 12
Pollen 7.20 out of 12
Air Quality Not available.
Flu Activity Not available.
METAR KMOD 010353Z 32005KT 10SM CLR 11/06 A2985 RMK AO2 RAE13 SLP108 P0000 T01060056 $

More Conditions Fewer Conditions

Pressure 29.85 in
Visibility 10.0 miles
Clouds Clear
Windchill 49 °F
Dew Point 43 °F
Humidity 81%
Rainfall 0.59 in
Snow Depth Not available.
UV 0 out of 12
Pollen 7.20 out of 12
Air Quality Not available.
Flu Activity Not available.
METAR KMOD 010353Z 32005KT 10SM CLR 11/06 A2985 RMK AO2 RAE13 SLP108 P0000 T01060056 $

More Conditions Fewer Conditions

10-Day Weather Forecast

Almanac

Astronomy

Feb. 28, 2015 Rise Set
Actual Time
Civil Twilight
Nautical Twilight
Astronomical Twilight
Moon
Length of Visible Light
Length of Day
Tomorrow will be .
, % of the Moon is Illuminated

Today's Extremes

State Highs State Lows

Community

WunderPhotos

Upload Photos

1,801,318 photos uploaded!

WunderBlogs® & News

Nearby

Air Quality

  Air Quality AQ Index Pollutant
Not available.

Snow Depth

Station Depth Elevation

Earthquake Activity

City Distance Mag. Time & Date
Minimum magnitude displayed is 2.5.

Coastal Water Temperatures

Place Temperature

Nearby Weather Stations